Time;durP1;ratioP1;P1;durP2;ratioP2;P2;SDS_P1;SDS_P2;PMS_P1;PMS_P2;Temp;Humidity;BMP_temperature;BMP_pressure;BME280_temperature;BME280_humidity;BME280_pressure;Samples;Min_cycle;Max_cycle;Signal;HPM_P1;HPM_P2
2022/02/23 00:00:55;;;;;;;;;;;;;;;;;;5060206;28;19924;-79
2022/02/23 00:03:22;;;;;;;;;;;;;;;;;;5072952;28;20384;-79
2022/02/23 00:05:48;;;;;;;;;;;;;;;;;;5072864;28;19920;-78
2022/02/23 00:08:15;;;;;;;;;;;;;;;;;;5071809;28;19924;-78
2022/02/23 00:10:41;;;;;;;;;;;;;;;;;;5071125;28;19920;-79
2022/02/23 00:13:07;;;;;;;;;;;;;;;;;;5062192;28;19982;-78
2022/02/23 00:15:34;;;;;;;;;;;;;;;;;;5072749;28;20377;-79
2022/02/23 00:18:00;;;;;;;;;;;;;;;;;;5076102;28;19975;-80
2022/02/23 00:20:27;;;;;;;;;;;;;;;;;;5075614;28;19925;-80
2022/02/23 00:22:54;;;;;;;;;;;;;;;;;;5066188;28;19920;-79
2022/02/23 00:25:21;;;;;;;;;;;;;;;;;;5056967;28;19967;-77
2022/02/23 00:27:47;;;;;;;;;;;;;;;;;;5057636;28;19975;-78
2022/02/23 00:30:14;;;;;;;;;;;;;;;;;;5058667;28;19930;-78
2022/02/23 00:32:40;;;;;;;;;;;;;;;;;;5070596;28;19978;-79
2022/02/23 00:35:07;;;;;;;;;;;;;;;;;;5062812;28;19921;-78
2022/02/23 00:37:34;;;;;;;;;;;;;;;;;;5071950;28;20391;-77
2022/02/23 00:40:00;;;;;;;;;;;;;;;;;;5071597;28;19924;-78
2022/02/23 00:42:27;;;;;;;;;;;;;;;;;;5076632;28;19956;-77
2022/02/23 00:44:54;;;;;;;;;;;;;;;;;;5076921;28;20023;-79
2022/02/23 00:47:20;;;;;;;;;;;;;;;;;;5077701;28;19926;-78
2022/02/23 00:49:49;;;;;;;;;;;;;;;;;;5062310;28;19928;-76
2022/02/23 00:52:16;;;;;;;;;;;;;;;;;;5073788;28;20457;-77
2022/02/23 00:54:43;;;;;;;;;;;;;;;;;;5077050;28;20010;-78
2022/02/23 00:57:09;;;;;;;;;;;;;;;;;;5075823;28;19920;-78
2022/02/23 00:59:36;;;;;;;;;;;;;;;;;;5076607;28;19921;-80
2022/02/23 01:02:03;;;;;;;;;;;;;;;;;;5077111;28;20280;-78
2022/02/23 01:04:29;;;;;;;;;;;;;;;;;;5050100;28;19994;-77
2022/02/23 01:06:55;;;;;;;;;;;;;;;;;;5066094;28;20385;-78
2022/02/23 01:09:22;;;;;;;;;;;;;;;;;;5075910;28;19951;-77
2022/02/23 01:11:49;;;;;;;;;;;;;;;;;;5076157;28;19963;-77
2022/02/23 01:14:15;;;;;;;;;;;;;;;;;;5076620;28;19924;-79
2022/02/23 01:16:42;;;;;;;;;;;;;;;;;;5075441;28;20301;-77
2022/02/23 01:19:09;;;;;;;;;;;;;;;;;;5067276;28;19927;-76
2022/02/23 01:21:36;;;;;;;;;;;;;;;;;;5060456;28;19920;-77
2022/02/23 01:24:02;;;;;;;;;;;;;;;;;;5065090;28;19947;-77
2022/02/23 01:26:29;;;;;;;;;;;;;;;;;;5065551;28;20027;-77
2022/02/23 01:28:55;;;;;;;;;;;;;;;;;;5057333;28;19924;-77
2022/02/23 01:31:22;;;;;;;;;;;;;;;;;;5077277;28;19920;-78
2022/02/23 01:33:49;;;;;;;;;;;;;;;;;;5057556;28;20003;-76
2022/02/23 01:36:16;;;;;;;;;;;;;;;;;;5060090;28;19974;-77
2022/02/23 01:38:42;;;;;;;;;;;;;;;;;;5057691;28;19974;-77
2022/02/23 01:41:13;;;;;;;;;;;;;;;;;;5074517;28;20058;-77
2022/02/23 01:43:41;;;;;;;;;;;;;;;;;;5071296;28;19967;-74
2022/02/23 01:46:12;;;;;;;;;;;;;;;;;;5055055;28;20412;-77
2022/02/23 01:48:43;;;;;;;;;;;;;;;;;;5072391;28;19920;-77
2022/02/23 01:51:12;;;;;;;;;;;;;;;;;;5057808;28;19921;-77
2022/02/23 01:53:41;;;;;;;;;;;;;;;;;;5058938;28;19920;-78
2022/02/23 01:56:09;;;;;;;;;;;;;;;;;;5075065;28;19920;-77
2022/02/23 01:58:37;;;;;;;;;;;;;;;;;;5061829;28;19920;-78
2022/02/23 02:01:05;;;;;;;;;;;;;;;;;;5074659;28;20027;-78
2022/02/23 02:03:34;;;;;;;;;;;;;;;;;;5073447;28;19920;-77
2022/02/23 02:06:02;;;;;;;;;;;;;;;;;;5074858;28;20076;-77
2022/02/23 02:08:31;;;;;;;;;;;;;;;;;;5073480;28;19920;-79
2022/02/23 02:10:58;;;;;;;;;;;;;;;;;;5073871;28;20327;-78
2022/02/23 02:13:28;;;;;;;;;;;;;;;;;;5056592;28;20364;-77
2022/02/23 02:15:56;;;;;;;;;;;;;;;;;;5064147;28;19931;-77
2022/02/23 02:18:24;;;;;;;;;;;;;;;;;;5074212;28;20010;-78
2022/02/23 02:20:54;;;;;;;;;;;;;;;;;;5075465;28;19920;-78
2022/02/23 02:23:22;;;;;;;;;;;;;;;;;;5074555;28;20426;-78
2022/02/23 02:25:51;;;;;;;;;;;;;;;;;;5055497;28;19921;-78
2022/02/23 02:28:19;;;;;;;;;;;;;;;;;;5057511;28;19921;-77
2022/02/23 02:30:48;;;;;;;;;;;;;;;;;;5072357;28;19920;-77
2022/02/23 02:33:18;;;;;;;;;;;;;;;;;;5074572;28;20203;-78
2022/02/23 02:35:48;;;;;;;;;;;;;;;;;;5065162;28;19924;-77
2022/02/23 02:38:19;;;;;;;;;;;;;;;;;;5072774;28;19925;-77
2022/02/23 02:40:48;;;;;;;;;;;;;;;;;;5072555;28;19952;-75
2022/02/23 02:43:17;;;;;;;;;;;;;;;;;;5054992;28;19924;-79
2022/02/23 02:45:48;;;;;;;;;;;;;;;;;;5060166;28;20327;-79
2022/02/23 02:48:16;;;;;;;;;;;;;;;;;;5076896;28;20293;-79
2022/02/23 02:50:49;;;;;;;;;;;;;;;;;;5073829;28;19927;-79
2022/02/23 02:53:15;;;;;;;;;;;;;;;;;;5074513;28;19924;-77
2022/02/23 02:55:42;;;;;;;;;;;;;;;;;;5055683;28;19921;-79
2022/02/23 02:58:09;;;;;;;;;;;;;;;;;;5058819;28;20335;-78
2022/02/23 03:00:35;;;;;;;;;;;;;;;;;;5060075;28;20090;-78
2022/02/23 03:03:02;;;;;;;;;;;;;;;;;;5054777;28;19920;-77
2022/02/23 03:05:31;;;;;;;;;;;;;;;;;;5053512;28;20270;-77
2022/02/23 03:07:57;;;;;;;;;;;;;;;;;;5072266;28;19920;-78
2022/02/23 03:10:26;;;;;;;;;;;;;;;;;;5073812;28;20015;-76
2022/02/23 03:12:53;;;;;;;;;;;;;;;;;;5057057;28;20343;-78
2022/02/23 03:15:19;;;;;;;;;;;;;;;;;;5073866;28;20294;-77
2022/02/23 03:17:46;;;;;;;;;;;;;;;;;;5062435;28;20284;-78
2022/02/23 03:20:13;;;;;;;;;;;;;;;;;;5047061;28;19920;-76
2022/02/23 03:22:43;;;;;;;;;;;;;;;;;;5056360;28;19951;-78
2022/02/23 03:25:10;;;;;;;;;;;;;;;;;;5054141;28;20015;-78
2022/02/23 03:27:36;;;;;;;;;;;;;;;;;;5054317;28;20019;-78
2022/02/23 03:30:03;;;;;;;;;;;;;;;;;;5070891;28;19920;-78
2022/02/23 03:32:32;;;;;;;;;;;;;;;;;;5074596;28;19998;-78
2022/02/23 03:34:58;;;;;;;;;;;;;;;;;;5060577;28;20020;-78
2022/02/23 03:37:24;;;;;;;;;;;;;;;;;;5067601;28;19924;-77
2022/02/23 03:39:51;;;;;;;;;;;;;;;;;;5043343;28;19921;-77
2022/02/23 03:42:17;;;;;;;;;;;;;;;;;;5067732;28;19927;-77
2022/02/23 03:44:46;;;;;;;;;;;;;;;;;;5037627;28;19935;-77
2022/02/23 03:47:12;;;;;;;;;;;;;;;;;;5072544;28;19920;-78
2022/02/23 03:49:39;;;;;;;;;;;;;;;;;;5072794;28;20428;-78
2022/02/23 03:52:05;;;;;;;;;;;;;;;;;;5073553;28;19966;-77
2022/02/23 03:54:32;;;;;;;;;;;;;;;;;;5072715;28;20011;-78
2022/02/23 03:56:58;;;;;;;;;;;;;;;;;;5073314;28;19920;-79
2022/02/23 03:59:24;;;;;;;;;;;;;;;;;;5072778;28;19950;-77
2022/02/23 04:01:51;;;;;;;;;;;;;;;;;;5072722;28;19925;-79
2022/02/23 04:04:17;;;;;;;;;;;;;;;;;;5072395;28;19920;-79
2022/02/23 04:06:44;;;;;;;;;;;;;;;;;;5072861;28;19920;-77
2022/02/23 04:09:11;;;;;;;;;;;;;;;;;;5074011;28;20258;-77
2022/02/23 04:11:37;;;;;;;;;;;;;;;;;;5072802;28;19927;-79
2022/02/23 04:14:04;;;;;;;;;;;;;;;;;;5072600;28;19920;-79
2022/02/23 04:16:30;;;;;;;;;;;;;;;;;;5069831;28;20018;-78
2022/02/23 04:18:57;;;;;;;;;;;;;;;;;;5052483;28;19921;-79
2022/02/23 04:21:24;;;;;;;;;;;;;;;;;;5067341;28;20388;-77
2022/02/23 04:23:50;;;;;;;;;;;;;;;;;;5070133;28;19927;-77
2022/02/23 04:26:17;;;;;;;;;;;;;;;;;;5073710;28;19921;-79
2022/02/23 04:28:43;;;;;;;;;;;;;;;;;;5085005;28;19928;-77
2022/02/23 04:31:09;;;;;;;;;;;;;;;;;;5072920;28;19966;-76
2022/02/23 04:33:36;;;;;;;;;;;;;;;;;;5072091;28;19997;-77
2022/02/23 04:36:03;;;;;;;;;;;;;;;;;;5073951;28;19970;-75
2022/02/23 04:38:29;;;;;;;;;;;;;;;;;;5072710;28;20438;-77
2022/02/23 04:40:56;;;;;;;;;;;;;;;;;;5071454;28;19975;-77
2022/02/23 04:43:26;;;;;;;;;;;;;;;;;;5071691;28;19924;-77
2022/02/23 04:45:52;;;;;;;;;;;;;;;;;;5074099;28;20311;-77
2022/02/23 04:48:18;;;;;;;;;;;;;;;;;;5055136;28;19979;-77
2022/02/23 04:50:45;;;;;;;;;;;;;;;;;;5072735;28;19963;-76
2022/02/23 04:53:12;;;;;;;;;;;;;;;;;;5073634;28;19920;-77
2022/02/23 04:55:39;;;;;;;;;;;;;;;;;;5054985;28;20397;-77
2022/02/23 04:58:07;;;;;;;;;;;;;;;;;;5058084;28;19920;-77
2022/02/23 05:00:34;;;;;;;;;;;;;;;;;;5051644;28;20417;-77
2022/02/23 05:03:03;;;;;;;;;;;;;;;;;;5053561;28;19920;-77
2022/02/23 05:05:30;;;;;;;;;;;;;;;;;;5055762;28;20293;-77
2022/02/23 05:07:58;;;;;;;;;;;;;;;;;;5075408;28;19920;-76
2022/02/23 05:10:25;;;;;;;;;;;;;;;;;;5075828;28;19935;-79
2022/02/23 05:12:52;;;;;;;;;;;;;;;;;;5067950;28;20289;-78
2022/02/23 05:15:22;;;;;;;;;;;;;;;;;;5063577;28;19921;-78
2022/02/23 05:17:48;;;;;;;;;;;;;;;;;;5072891;28;19966;-77
2022/02/23 05:20:14;;;;;;;;;;;;;;;;;;5070162;28;19928;-77
2022/02/23 05:22:45;;;;;;;;;;;;;;;;;;5069401;28;19925;-77
2022/02/23 05:25:12;;;;;;;;;;;;;;;;;;5056644;28;19927;-77
2022/02/23 05:27:38;;;;;;;;;;;;;;;;;;5038933;28;19920;-77
2022/02/23 05:30:05;;;;;;;;;;;;;;;;;;5058065;28;19924;-76
2022/02/23 05:32:32;;;;;;;;;;;;;;;;;;5075107;28;19962;-77
2022/02/23 05:34:58;;;;;;;;;;;;;;;;;;5075402;28;19955;-77
2022/02/23 05:37:25;;;;;;;;;;;;;;;;;;5075849;28;20357;-79
2022/02/23 05:39:53;;;;;;;;;;;;;;;;;;5063647;28;19921;-77
2022/02/23 05:42:19;;;;;;;;;;;;;;;;;;5074097;28;19950;-79
2022/02/23 05:44:47;;;;;;;;;;;;;;;;;;5074895;28;19942;-78
2022/02/23 05:47:13;;;;;;;;;;;;;;;;;;5071968;28;20041;-78
2022/02/23 05:49:43;;;;;;;;;;;;;;;;;;5058853;28;19927;-78
2022/02/23 05:52:09;;;;;;;;;;;;;;;;;;5062444;28;19927;-78
2022/02/23 05:54:36;;;;;;;;;;;;;;;;;;5075158;28;20028;-78
2022/02/23 05:57:03;;;;;;;;;;;;;;;;;;5076206;28;19927;-78
2022/02/23 05:59:30;;;;;;;;;;;;;;;;;;5065563;28;19921;-78
2022/02/23 06:01:56;;;;;;;;;;;;;;;;;;5067520;28;20357;-78
2022/02/23 06:04:22;;;;;;;;;;;;;;;;;;5074741;28;20035;-78
2022/02/23 06:06:49;;;;;;;;;;;;;;;;;;5068766;28;19924;-78
2022/02/23 06:09:16;;;;;;;;;;;;;;;;;;5069938;28;19958;-79
2022/02/23 06:11:44;;;;;;;;;;;;;;;;;;5061261;28;19920;-75
2022/02/23 06:14:10;;;;;;;;;;;;;;;;;;5068796;28;19921;-76
2022/02/23 06:16:37;;;;;;;;;;;;;;;;;;5054704;28;19968;-76
2022/02/23 06:19:03;;;;;;;;;;;;;;;;;;5054858;28;20361;-77
2022/02/23 06:21:30;;;;;;;;;;;;;;;;;;5055538;28;19920;-76
2022/02/23 06:23:56;;;;;;;;;;;;;;;;;;5067303;28;20347;-76
2022/02/23 06:26:23;;;;;;;;;;;;;;;;;;5058086;28;19968;-77
2022/02/23 06:28:49;;;;;;;;;;;;;;;;;;5091024;28;20046;-77
2022/02/23 06:31:16;;;;;;;;;;;;;;;;;;5074745;28;19924;-77
2022/02/23 06:33:43;;;;;;;;;;;;;;;;;;5073516;28;19967;-76
2022/02/23 06:36:09;;;;;;;;;;;;;;;;;;5074310;28;20314;-77
2022/02/23 06:38:40;;;;;;;;;;;;;;;;;;5073330;28;20388;-79
2022/02/23 06:41:08;;;;;;;;;;;;;;;;;;5060831;28;19921;-79
2022/02/23 06:43:36;;;;;;;;;;;;;;;;;;5073796;28;19952;-79
2022/02/23 06:46:02;;;;;;;;;;;;;;;;;;5074538;28;19920;-78
2022/02/23 06:48:29;;;;;;;;;;;;;;;;;;5057375;28;19946;-79
2022/02/23 06:50:55;;;;;;;;;;;;;;;;;;5073404;28;20016;-78
2022/02/23 06:53:23;;;;;;;;;;;;;;;;;;5073621;28;19920;-76
2022/02/23 06:55:52;;;;;;;;;;;;;;;;;;5055029;28;20029;-76
2022/02/23 06:58:19;;;;;;;;;;;;;;;;;;5054209;28;20434;-78
2022/02/23 07:00:51;;;;;;;;;;;;;;;;;;5067537;28;20324;-76
2022/02/23 07:03:18;;;;;;;;;;;;;;;;;;5073986;28;19927;-76
2022/02/23 07:05:44;;;;;;;;;;;;;;;;;;5073533;28;19942;-76
2022/02/23 07:08:11;;;;;;;;;;;;;;;;;;5062624;28;19925;-76
2022/02/23 07:10:37;;;;;;;;;;;;;;;;;;5065351;28;19928;-76
2022/02/23 07:13:06;;;;;;;;;;;;;;;;;;5073322;28;19920;-76
2022/02/23 07:15:33;;;;;;;;;;;;;;;;;;5073706;28;19935;-76
2022/02/23 07:18:01;;;;;;;;;;;;;;;;;;5073954;28;19921;-77
2022/02/23 07:20:27;;;;;;;;;;;;;;;;;;5072612;28;20285;-77
2022/02/23 07:22:55;;;;;;;;;;;;;;;;;;5074610;28;20289;-77
2022/02/23 07:25:21;;;;;;;;;;;;;;;;;;5040562;28;19951;-77
2022/02/23 07:27:48;;;;;;;;;;;;;;;;;;5052900;28;19920;-76
2022/02/23 07:30:16;;;;;;;;;;;;;;;;;;5052744;28;19959;-78
2022/02/23 07:32:47;;;;;;;;;;;;;;;;;;5075591;28;20373;-77
2022/02/23 07:35:14;;;;;;;;;;;;;;;;;;5058294;28;19920;-77
2022/02/23 07:37:42;;;;;;;;;;;;;;;;;;5073634;28;19924;-77
2022/02/23 07:40:09;;;;;;;;;;;;;;;;;;5054626;28;20004;-77
2022/02/23 07:42:55;;;;;;;;;;;;;;;;;;5075826;28;20074;-77
2022/02/23 07:45:29;;;;;;;;;;;;;;;;;;5073196;28;19925;-76
2022/02/23 07:47:58;;;;;;;;;;;;;;;;;;5073149;28;20361;-74
2022/02/23 07:50:25;;;;;;;;;;;;;;;;;;5072577;28;19924;-77
2022/02/23 07:52:52;;;;;;;;;;;;;;;;;;5072829;28;19921;-77
2022/02/23 07:55:20;;;;;;;;;;;;;;;;;;5075042;28;19943;-77
2022/02/23 07:57:48;;;;;;;;;;;;;;;;;;5068631;28;19926;-77
2022/02/23 08:00:15;;;;;;;;;;;;;;;;;;5073940;28;19924;-78
2022/02/23 08:03:06;;;;;;;;;;;;;;;;;;5064005;28;19920;-76
2022/02/23 08:05:33;;;;;;;;;;;;;;;;;;5052842;28;20333;-77
2022/02/23 08:08:02;;;;;;;;;;;;;;;;;;5054450;28;19921;-77
2022/02/23 08:10:28;;;;;;;;;;;;;;;;;;5070381;28;19921;-77
2022/02/23 08:12:58;;;;;;;;;;;;;;;;;;5072432;28;20420;-77
2022/02/23 08:20:55;;;;;;;;;;;;;;;;;;5073894;28;20372;-77
2022/02/23 08:23:22;;;;;;;;;;;;;;;;;;5074407;28;19921;-78
2022/02/23 08:25:49;;;;;;;;;;;;;;;;;;5071373;28;20315;-78
2022/02/23 08:28:16;;;;;;;;;;;;;;;;;;5071566;28;19952;-77
2022/02/23 08:30:42;;;;;;;;;;;;;;;;;;5061230;28;19921;-77
2022/02/23 08:33:09;;;;;;;;;;;;;;;;;;5069977;28;19921;-77
2022/02/23 08:35:44;;;;;;;;;;;;;;;;;;5055027;28;19928;-78
2022/02/23 08:38:13;;;;;;;;;;;;;;;;;;5071655;28;20364;-78
2022/02/23 08:40:41;;;;;;;;;;;;;;;;;;5076720;28;19927;-78
2022/02/23 08:43:08;;;;;;;;;;;;;;;;;;5069709;28;19927;-78
2022/02/23 08:45:35;;;;;;;;;;;;;;;;;;5056537;28;19959;-78
2022/02/23 08:48:06;;;;;;;;;;;;;;;;;;5065706;28;20395;-77
2022/02/23 08:50:34;;;;;;;;;;;;;;;;;;5077567;28;19921;-78
2022/02/23 08:53:01;;;;;;;;;;;;;;;;;;5075802;28;20318;-77
2022/02/23 08:55:28;;;;;;;;;;;;;;;;;;5058721;28;20031;-78
2022/02/23 08:57:58;;;;;;;;;;;;;;;;;;5062299;28;19963;-77
2022/02/23 09:00:25;;;;;;;;;;;;;;;;;;5075035;28;19920;-78
2022/02/23 09:02:52;;;;;;;;;;;;;;;;;;5070239;28;19927;-78
2022/02/23 09:05:18;;;;;;;;;;;;;;;;;;5066613;28;20377;-78
2022/02/23 09:07:45;;;;;;;;;;;;;;;;;;5073977;28;19973;-78
2022/02/23 09:10:12;;;;;;;;;;;;;;;;;;5075542;28;20280;-78
2022/02/23 09:12:39;;;;;;;;;;;;;;;;;;5078065;28;19928;-78
2022/02/23 09:15:07;;;;;;;;;;;;;;;;;;5076051;28;19921;-79
2022/02/23 09:17:34;;;;;;;;;;;;;;;;;;5074994;28;20376;-78
2022/02/23 09:20:02;;;;;;;;;;;;;;;;;;5071680;28;19927;-80
2022/02/23 09:22:30;;;;;;;;;;;;;;;;;;5075428;28;19928;-80
2022/02/23 09:24:56;;;;;;;;;;;;;;;;;;5075437;28;19932;-80
2022/02/23 09:27:23;;;;;;;;;;;;;;;;;;5074984;28;19966;-80
2022/02/23 09:29:49;;;;;;;;;;;;;;;;;;5072914;28;19920;-79
2022/02/23 09:32:16;;;;;;;;;;;;;;;;;;5072425;28;19921;-80
2022/02/23 09:34:43;;;;;;;;;;;;;;;;;;5055248;28;19928;-79
2022/02/23 09:37:09;;;;;;;;;;;;;;;;;;5053195;28;19921;-80
2022/02/23 09:39:39;;;;;;;;;;;;;;;;;;5065709;28;19970;-78
2022/02/23 09:42:06;;;;;;;;;;;;;;;;;;5065290;28;20653;-81
2022/02/23 09:44:33;;;;;;;;;;;;;;;;;;5075433;28;20425;-81
2022/02/23 09:47:02;;;;;;;;;;;;;;;;;;5064897;28;19925;-81
2022/02/23 09:49:30;;;;;;;;;;;;;;;;;;5070787;28;19921;-81
2022/02/23 09:51:57;;;;;;;;;;;;;;;;;;5084078;28;19928;-80
2022/02/23 09:54:24;;;;;;;;;;;;;;;;;;5062270;28;20425;-80
2022/02/23 09:56:50;;;;;;;;;;;;;;;;;;5074647;28;20377;-80
2022/02/23 09:59:17;;;;;;;;;;;;;;;;;;5074016;28;19928;-81
2022/02/23 10:01:45;;;;;;;;;;;;;;;;;;5070973;28;19924;-83
2022/02/23 10:04:13;;;;;;;;;;;;;;;;;;5072369;28;19988;-80
2022/02/23 10:06:45;;;;;;;;;;;;;;;;;;5074582;28;19955;-81
2022/02/23 10:09:12;;;;;;;;;;;;;;;;;;5073466;28;19967;-81
2022/02/23 10:11:39;;;;;;;;;;;;;;;;;;5066944;28;19920;-80
2022/02/23 10:14:06;;;;;;;;;;;;;;;;;;5062237;28;19970;-81
2022/02/23 10:16:33;;;;;;;;;;;;;;;;;;5050393;28;20266;-79
2022/02/23 10:18:59;;;;;;;;;;;;;;;;;;5066990;28;19921;-81
2022/02/23 10:21:26;;;;;;;;;;;;;;;;;;5071160;28;19931;-79
2022/02/23 10:23:55;;;;;;;;;;;;;;;;;;5075224;28;19920;-83
2022/02/23 10:26:21;;;;;;;;;;;;;;;;;;5072986;28;19924;-84
2022/02/23 10:28:48;;;;;;;;;;;;;;;;;;5072493;28;19920;-84
2022/02/23 10:31:19;;;;;;;;;;;;;;;;;;5039083;28;19928;-87
2022/02/23 10:33:47;;;;;;;;;;;;;;;;;;5071599;28;20431;-82
2022/02/23 10:36:22;;;;;;;;;;;;;;;;;;5056864;28;19920;-85
2022/02/23 10:38:51;;;;;;;;;;;;;;;;;;5090753;28;20457;-86
2022/02/23 10:41:17;;;;;;;;;;;;;;;;;;5075299;28;19920;-86
2022/02/23 10:43:47;;;;;;;;;;;;;;;;;;5072428;28;19920;-83
2022/02/23 10:46:15;;;;;;;;;;;;;;;;;;5073681;28;20373;-84
2022/02/23 10:48:43;;;;;;;;;;;;;;;;;;5071709;28;19981;-84
2022/02/23 10:51:11;;;;;;;;;;;;;;;;;;5075358;28;19920;-84
2022/02/23 10:53:41;;;;;;;;;;;;;;;;;;5076828;28;19939;-85
2022/02/23 10:56:08;;;;;;;;;;;;;;;;;;5074244;28;19928;-85
2022/02/23 10:58:37;;;;;;;;;;;;;;;;;;5066747;28;19924;-84
2022/02/23 11:01:03;;;;;;;;;;;;;;;;;;5062084;28;19920;-81
2022/02/23 11:03:33;;;;;;;;;;;;;;;;;;5070952;28;19920;-84
2022/02/23 11:05:59;;;;;;;;;;;;;;;;;;5090233;28;20373;-86
2022/02/23 11:08:26;;;;;;;;;;;;;;;;;;5073293;28;20389;-83
2022/02/23 11:10:52;;;;;;;;;;;;;;;;;;5073001;28;19921;-84
2022/02/23 11:13:21;;;;;;;;;;;;;;;;;;5074485;28;20003;-83
2022/02/23 11:15:52;;;;;;;;;;;;;;;;;;5065953;28;19921;-83
2022/02/23 11:18:20;;;;;;;;;;;;;;;;;;5053620;28;19920;-83
2022/02/23 11:20:48;;;;;;;;;;;;;;;;;;5054416;28;20019;-79
2022/02/23 11:23:15;;;;;;;;;;;;;;;;;;5059682;28;19966;-80
2022/02/23 11:25:42;;;;;;;;;;;;;;;;;;5073088;28;19955;-85
2022/02/23 11:28:09;;;;;;;;;;;;;;;;;;5057864;28;19980;-81
2022/02/23 11:30:36;;;;;;;;;;;;;;;;;;5072905;28;19924;-82
2022/02/23 11:33:04;;;;;;;;;;;;;;;;;;5038734;28;19920;-83
2022/02/23 11:35:49;;;;;;;;;;;;;;;;;;5055059;28;19956;-85
2022/02/23 11:38:15;;;;;;;;;;;;;;;;;;5074052;28;19943;-84
2022/02/23 11:40:48;;;;;;;;;;;;;;;;;;5056570;28;19951;-82
2022/02/23 11:43:26;;;;;;;0.70;0.70;;;;;;;;;;5069566;28;20217;-85
2022/02/23 11:46:11;;;;;;;1.63;0.68;;;;;;;;;;5062417;28;20420;-82
2022/02/23 11:52:05;;;;;;;1.53;1.10;;;;;;;;;;5065364;28;20490;-80
2022/02/23 11:54:51;;;;;;;0.70;0.70;;;;;;;;;;5071276;28;20455;-86
2022/02/23 11:58:00;;;;;;;0.70;0.50;;;;;;;;;;5079730;28;20427;-82
2022/02/23 12:00:45;;;;;;;0.70;0.50;;;;;;;;;;5061106;28;20411;-83
2022/02/23 12:03:23;;;;;;;0.70;0.50;;;;;;;;;;5082818;28;20481;-83
2022/02/23 12:05:55;;;;;;;0.70;0.50;;;;;;;;;;5085082;28;20433;-82
2022/02/23 12:08:42;;;;;;;0.70;0.50;;;;;;;;;;5082054;28;20418;-81
2022/02/23 12:11:28;;;;;;;3.50;1.00;;;;;;;;;;5084612;28;20424;-82
2022/02/23 12:13:55;;;;;;;3.30;1.30;;;;;;;;;;5085637;28;20526;-83
2022/02/23 12:16:23;;;;;;;0.70;0.50;;;;;;;;;;5082906;28;20510;-80
2022/02/23 12:18:56;;;;;;;0.70;0.50;;;;;;;;;;5086515;28;20431;-81
2022/02/23 12:21:35;;;;;;;1.10;0.70;;;;;;;;;;5069453;28;20417;-81
2022/02/23 12:24:02;;;;;;;0.70;0.50;;;;;;;;;;5079047;28;20409;-83
2022/02/23 12:26:29;;;;;;;0.70;0.50;;;;;;;;;;5068738;28;20520;-83
2022/02/23 12:28:57;;;;;;;0.70;0.50;;;;;;;;;;5056815;28;20481;-79
2022/02/23 12:31:32;;;;;;;0.70;0.50;;;;;;;;;;5088588;28;20434;-82
2022/02/23 12:34:03;;;;;;;0.70;0.60;;;;;;;;;;5084894;28;20430;-84
2022/02/23 12:36:52;;;;;;;0.70;0.50;;;;;;;;;;5080277;28;20509;-83
2022/02/23 12:39:20;;;;;;;0.70;0.60;;;;;;;;;;5100791;28;20445;-80
2022/02/23 12:41:47;;;;;;;0.80;0.60;;;;;;;;;;5073172;28;20923;-84
2022/02/23 12:44:16;;;;;;;0.70;0.50;;;;;;;;;;5061972;28;20405;-85
2022/02/23 12:46:44;;;;;;;0.70;0.50;;;;;;;;;;5067925;28;20801;-80
2022/02/23 12:49:13;;;;;;;0.70;0.60;;;;;;;;;;5070726;28;20426;-78
2022/02/23 12:51:43;;;;;;;0.70;0.50;;;;;;;;;;5081121;28;20450;-84
2022/02/23 12:54:11;;;;;;;0.70;0.60;;;;;;;;;;5072661;28;20413;-85
2022/02/23 12:56:39;;;;;;;1.00;0.90;;;;;;;;;;5054283;28;20481;-86
2022/02/23 12:59:07;;;;;;;0.70;0.50;;;;;;;;;;5049023;28;20530;-84
2022/02/23 13:01:36;;;;;;;0.70;0.50;;;;;;;;;;5072762;28;20407;-84
2022/02/23 13:04:04;;;;;;;0.70;0.50;;;;;;;;;;5060172;28;20416;-84
2022/02/23 13:06:36;;;;;;;0.70;0.60;;;;;;;;;;5058412;28;20934;-84
2022/02/23 13:09:06;;;;;;;1.80;0.90;;;;;;;;;;5055030;28;20420;-85
2022/02/23 13:11:35;;;;;;;0.98;0.80;;;;;;;;;;5059984;28;20517;-88
2022/02/23 13:14:04;;;;;;;0.70;0.60;;;;;;;;;;5076652;28;20490;-87
2022/02/23 13:16:31;;;;;;;0.70;0.50;;;;;;;;;;5081838;28;20400;-85
2022/02/23 13:18:59;;;;;;;0.70;0.50;;;;;;;;;;5061623;28;20512;-88
2022/02/23 13:21:39;;;;;;;0.70;0.50;;;;;;;;;;5058163;28;20401;-84
2022/02/23 13:24:08;;;;;;;0.70;0.50;;;;;;;;;;5076746;28;20411;-85
2022/02/23 13:26:36;;;;;;;0.70;0.50;;;;;;;;;;5078580;28;20954;-84
2022/02/23 13:29:05;;;;;;;0.90;0.60;;;;;;;;;;5068663;28;20435;-84
2022/02/23 13:31:33;;;;;;;0.70;0.50;;;;;;;;;;5070243;28;20447;-82
2022/02/23 13:34:34;;;;;;;0.70;0.60;;;;;;;;;;5084451;28;20411;-82
2022/02/23 13:37:10;;;;;;;0.70;0.50;;;;;;;;;;5065995;28;20428;-83
2022/02/23 13:39:43;;;;;;;0.70;0.50;;;;;;;;;;5081822;28;20482;-79
2022/02/23 13:42:13;;;;;;;0.70;0.50;;;;;;;;;;5078978;28;20499;-83
2022/02/23 13:44:41;;;;;;;0.80;0.60;;;;;;;;;;5079062;28;20900;-78
2022/02/23 13:47:10;;;;;;;0.70;0.50;;;;;;;;;;5080439;28;20502;-86
2022/02/23 13:49:51;;;;;;;0.70;0.50;;;;;;;;;;5080149;28;20972;-79
2022/02/23 13:52:20;;;;;;;0.70;0.50;;;;;;;;;;5076740;28;20404;-84
2022/02/23 13:54:55;;;;;;;0.70;0.57;;;;;;;;;;5055549;28;20503;-83
2022/02/23 13:57:26;;;;;;;1.63;0.77;;;;;;;;;;5079412;28;20410;-80
2022/02/23 13:59:59;;;;;;;0.70;0.50;;;;;;;;;;5076572;28;20487;-78
2022/02/23 14:02:26;;;;;;;0.70;0.50;;;;;;;;;;5065307;28;20407;-79
2022/02/23 14:05:02;;;;;;;0.70;0.50;;;;;;;;;;5059221;28;20429;-78
2022/02/23 14:07:31;;;;;;;0.80;0.80;;;;;;;;;;5068268;28;20407;-82
2022/02/23 14:10:07;;;;;;;0.70;0.50;;;;;;;;;;5071014;28;20523;-81
2022/02/23 14:12:35;;;;;;;0.70;0.50;;;;;;;;;;5090213;28;20908;-79
2022/02/23 14:15:02;;;;;;;0.70;0.50;;;;;;;;;;5064972;28;20420;-81
2022/02/23 14:17:29;;;;;;;0.70;0.50;;;;;;;;;;5077306;28;20412;-80
2022/02/23 14:20:11;;;;;;;0.70;0.57;;;;;;;;;;5074188;28;20455;-79
2022/02/23 14:22:55;;;;;;;0.70;0.50;;;;;;;;;;5068311;28;20441;-81
2022/02/23 14:25:24;;;;;;;0.70;0.50;;;;;;;;;;5057635;28;20406;-80
2022/02/23 14:27:52;;;;;;;0.70;0.50;;;;;;;;;;5071551;28;20518;-77
2022/02/23 14:30:27;;;;;;;0.70;0.50;;;;;;;;;;5066890;28;20423;-79
2022/02/23 14:32:55;;;;;;;0.90;0.70;;;;;;;;;;5074324;28;20405;-79
2022/02/23 14:35:25;;;;;;;0.70;0.60;;;;;;;;;;5083240;28;20487;-79
2022/02/23 14:37:54;;;;;;;0.70;0.60;;;;;;;;;;5082446;28;20411;-78
2022/02/23 14:40:23;;;;;;;0.70;0.50;;;;;;;;;;5085601;28;20404;-78
2022/02/23 14:42:50;;;;;;;0.70;0.50;;;;;;;;;;5085481;28;20415;-78
2022/02/23 14:45:17;;;;;;;0.80;0.60;;;;;;;;;;5090439;28;20387;-77
2022/02/23 14:47:49;;;;;;;0.70;0.60;;;;;;;;;;5078136;28;20448;-79
2022/02/23 14:50:19;;;;;;;1.35;1.25;;;;;;;;;;5078334;28;20533;-79
2022/02/23 14:52:52;;;;;;;0.70;0.50;;;;;;;;;;5072456;28;20490;-79
2022/02/23 14:55:23;;;;;;;0.70;0.50;;;;;;;;;;5074597;28;20416;-78
2022/02/23 14:57:52;;;;;;;0.70;0.60;;;;;;;;;;5074232;28;20410;-80
2022/02/23 15:00:21;;;;;;;0.70;0.60;;;;;;;;;;5072103;28;20757;-77
2022/02/23 15:03:17;;;;;;;1.30;1.20;;;;;;;;;;5078794;28;20407;-79
2022/02/23 15:05:44;;;;;;;0.70;0.50;;;;;;;;;;5072724;28;20442;-77
2022/02/23 15:08:11;;;;;;;0.70;0.50;;;;;;;;;;5060975;28;20408;-79
2022/02/23 15:10:40;;;;;;;0.70;0.50;;;;;;;;;;5058826;28;20424;-79
2022/02/23 15:13:07;;;;;;;0.90;0.70;;;;;;;;;;5061743;28;20454;-78
2022/02/23 15:15:34;;;;;;;0.70;0.50;;;;;;;;;;5068823;28;20473;-78
2022/02/23 15:18:05;;;;;;;0.70;0.50;;;;;;;;;;5080274;28;20404;-78
2022/02/23 15:20:33;;;;;;;1.30;1.20;;;;;;;;;;5081220;28;20455;-80
2022/02/23 15:23:00;;;;;;;1.00;0.70;;;;;;;;;;5085715;28;20489;-78
2022/02/23 15:25:27;;;;;;;0.70;0.50;;;;;;;;;;5083045;28;20423;-79
2022/02/23 15:27:56;;;;;;;0.70;0.57;;;;;;;;;;5086911;28;20447;-77
2022/02/23 15:30:24;;;;;;;0.70;0.52;;;;;;;;;;5083851;28;20474;-77
2022/02/23 15:32:51;;;;;;;0.70;0.50;;;;;;;;;;5066185;28;21045;-77
2022/02/23 15:35:19;;;;;;;0.70;0.50;;;;;;;;;;5084316;28;20435;-76
2022/02/23 15:37:46;;;;;;;0.87;0.83;;;;;;;;;;5084411;28;20726;-78
2022/02/23 15:40:14;;;;;;;0.70;0.50;;;;;;;;;;5083457;28;20419;-80
2022/02/23 15:42:42;;;;;;;0.70;0.50;;;;;;;;;;5066041;28;20452;-77
2022/02/23 15:45:12;;;;;;;0.70;0.60;;;;;;;;;;5062609;28;20421;-79
2022/02/23 15:47:53;;;;;;;;;;;;;;;;;;5078388;28;20074;-76
2022/02/23 15:50:20;;;;;;;;;;;;;;;;;;5084324;28;20400;-75
2022/02/23 15:52:47;;;;;;;;;;;;;;;;;;5088920;28;19921;-78
2022/02/23 15:55:13;;;;;;;;;;;;;;;;;;5090625;28;19920;-77
2022/02/23 15:57:40;;;;;;;;;;;;;;;;;;5086648;28;19920;-77
2022/02/23 16:00:06;;;;;;;;;;;;;;;;;;5085963;28;19943;-77
2022/02/23 16:02:33;;;;;;;;;;;;;;;;;;5068169;28;19943;-77
2022/02/23 16:05:00;;;;;;;;;;;;;;;;;;5077003;28;19921;-78
2022/02/23 16:07:26;;;;;;;;;;;;;;;;;;5084952;28;19920;-79
2022/02/23 16:09:53;;;;;;;;;;;;;;;;;;5087842;28;19959;-78
2022/02/23 16:12:20;;;;;;;;;;;;;;;;;;5090817;28;19928;-76
2022/02/23 16:14:47;;;;;;;;;;;;;;;;;;5086978;28;20379;-76
2022/02/23 16:17:16;;;;;;;;;;;;;;;;;;5088190;28;19908;-78
2022/02/23 16:19:43;;;;;;;;;;;;;;;;;;5092083;28;19947;-77
2022/02/23 16:22:09;;;;;;;;;;;;;;;;;;5091228;28;19920;-78
2022/02/23 16:24:36;;;;;;;;;;;;;;;;;;5087122;28;19920;-77
2022/02/23 16:27:04;;;;;;;;;;;;;;;;;;5088225;28;19920;-76
2022/02/23 16:29:34;;;;;;;0.80;0.70;;;;;;;;;;5074870;28;20213;-78